createdAt,value
2023-02-12T00:01:57.314Z,32.30
2023-02-12T00:04:26.908Z,37.70
2023-02-12T00:06:56.608Z,38.15
2023-02-12T00:09:26.066Z,36.30
2023-02-12T00:11:55.497Z,33.53
2023-02-12T00:14:24.987Z,35.13
2023-02-12T00:16:54.469Z,34.63
2023-02-12T00:19:24.341Z,38.85
2023-02-12T00:21:53.920Z,33.10
2023-02-12T00:24:23.422Z,36.77
2023-02-12T00:26:52.908Z,42.75
2023-02-12T00:29:22.835Z,36.15
2023-02-12T00:31:52.349Z,36.25
2023-02-12T00:34:22.278Z,37.30
2023-02-12T00:36:51.701Z,34.73
2023-02-12T00:39:22.095Z,36.80
2023-02-12T00:41:51.500Z,37.98
2023-02-12T00:44:21.005Z,42.40
2023-02-12T00:46:50.840Z,48.85
2023-02-12T00:49:20.467Z,40.28
2023-02-12T00:51:50.440Z,42.10
2023-02-12T00:54:19.952Z,36.30
2023-02-12T00:56:50.234Z,38.40
2023-02-12T00:59:19.650Z,37.13
2023-02-12T01:01:49.855Z,37.70
2023-02-12T01:04:19.997Z,39.80
2023-02-12T01:06:49.657Z,39.20
2023-02-12T01:09:19.175Z,37.50
2023-02-12T01:11:50.564Z,38.20
2023-02-12T01:14:20.002Z,40.08
2023-02-12T01:16:49.424Z,41.70
2023-02-12T01:19:20.828Z,34.53
2023-02-12T01:21:50.262Z,37.15
2023-02-12T01:24:19.740Z,36.20
2023-02-12T01:26:49.349Z,35.40
2023-02-12T01:29:18.766Z,38.30
2023-02-12T01:31:48.438Z,38.05
2023-02-12T01:34:19.676Z,35.63
2023-02-12T01:36:49.110Z,36.83
2023-02-12T01:39:19.164Z,35.20
2023-02-12T01:41:48.944Z,38.33
2023-02-12T01:44:27.202Z,44.15
2023-02-12T01:47:02.030Z,49.70
2023-02-12T01:49:43.690Z,47.53
2023-02-12T01:52:22.371Z,55.48
2023-02-12T01:54:56.850Z,47.70
2023-02-12T01:59:57.125Z,45.52
2023-02-12T02:02:27.756Z,41.75
2023-02-12T02:05:03.530Z,40.23
2023-02-12T02:07:33.768Z,42.25
2023-02-12T02:10:03.721Z,43.65
2023-02-12T02:12:52.071Z,40.08
2023-02-12T02:15:21.634Z,40.10
2023-02-12T02:18:12.458Z,41.90
2023-02-12T02:20:51.910Z,41.30
2023-02-12T02:23:24.630Z,40.35
2023-02-12T02:26:13.585Z,39.05
2023-02-12T02:29:21.609Z,41.95
2023-02-12T02:32:06.166Z,40.03
2023-02-12T02:34:55.380Z,39.55
2023-02-12T02:37:33.495Z,39.05
2023-02-12T02:40:14.816Z,39.45
2023-02-12T02:42:55.740Z,39.00
2023-02-12T02:45:28.360Z,41.33
2023-02-12T02:48:00.861Z,41.02
2023-02-12T02:53:09.789Z,41.80
2023-02-12T02:55:42.466Z,43.52
2023-02-12T02:58:18.950Z,42.85
2023-02-12T03:01:00.320Z,41.77
2023-02-12T03:03:48.905Z,42.90
2023-02-12T03:06:21.482Z,43.08
2023-02-12T03:08:53.980Z,46.65
2023-02-12T03:14:05.475Z,43.30
2023-02-12T03:16:47.088Z,41.77
2023-02-12T03:19:22.735Z,40.98
2023-02-12T03:22:01.205Z,43.10
2023-02-12T03:26:17.790Z,38.25
2023-02-12T03:28:47.619Z,41.55
2023-02-12T03:31:38.167Z,42.03
2023-02-12T03:34:28.799Z,40.95
2023-02-12T03:37:16.517Z,44.40
2023-02-12T03:39:55.050Z,38.02
2023-02-12T03:42:42.090Z,40.15
2023-02-12T03:45:27.012Z,44.85
2023-02-12T03:48:16.277Z,45.75
2023-02-12T03:51:00.880Z,42.33
2023-02-12T03:53:32.408Z,40.03
2023-02-12T03:56:13.967Z,44.30
2023-02-12T03:58:45.022Z,46.10
2023-02-12T04:01:15.866Z,47.98
2023-02-12T04:03:45.715Z,41.25
2023-02-12T04:06:24.109Z,50.78
2023-02-12T04:08:55.384Z,44.75
2023-02-12T04:11:36.786Z,43.33
2023-02-12T04:14:21.755Z,41.83
2023-02-12T04:17:27.818Z,46.30
2023-02-12T04:20:15.629Z,53.23
2023-02-12T04:23:03.449Z,43.75
2023-02-12T04:25:42.247Z,44.63
2023-02-12T04:28:20.605Z,50.15
2023-02-12T04:30:53.300Z,39.85
2023-02-12T04:33:26.049Z,45.43
2023-02-12T04:36:04.794Z,42.38
2023-02-12T04:38:40.228Z,42.13
2023-02-12T04:41:10.382Z,46.28
2023-02-12T04:43:40.348Z,43.08
2023-02-12T04:46:10.508Z,44.38
2023-02-12T04:48:46.028Z,44.90
2023-02-12T04:51:15.487Z,44.38
2023-02-12T04:53:44.988Z,43.48
2023-02-12T04:56:14.835Z,41.30
2023-02-12T04:58:44.602Z,41.42
2023-02-12T05:01:14.273Z,44.40
2023-02-12T05:03:44.054Z,42.85
2023-02-12T05:06:13.476Z,42.73
2023-02-12T05:08:42.923Z,39.95
2023-02-12T05:11:13.257Z,43.60
2023-02-12T05:13:42.691Z,45.65
2023-02-12T05:16:12.424Z,43.83
2023-02-12T05:18:42.117Z,44.73
2023-02-12T05:21:11.777Z,40.88
2023-02-12T05:23:42.401Z,47.90
2023-02-12T05:26:18.172Z,44.27
2023-02-12T05:28:48.095Z,43.40
2023-02-12T05:31:21.626Z,54.40
2023-02-12T05:33:52.059Z,46.50
2023-02-12T05:36:24.514Z,47.38
2023-02-12T05:38:56.384Z,46.40
2023-02-12T05:41:26.961Z,47.63
2023-02-12T05:43:57.449Z,45.63
2023-02-12T05:46:27.176Z,46.58
2023-02-12T05:48:56.645Z,48.55
2023-02-12T05:51:28.358Z,46.25
2023-02-12T05:54:00.373Z,43.40
2023-02-12T05:56:35.536Z,53.15
2023-02-12T05:59:08.807Z,45.30
2023-02-12T06:01:41.085Z,48.68
2023-02-12T06:04:14.137Z,51.20
2023-02-12T06:06:44.514Z,44.35
2023-02-12T06:09:15.125Z,45.95
2023-02-12T06:11:45.003Z,46.90
2023-02-12T06:14:17.485Z,48.30
2023-02-12T06:16:50.798Z,43.35
2023-02-12T06:19:21.027Z,49.83
2023-02-12T06:21:50.520Z,45.23
2023-02-12T06:24:20.023Z,48.45
2023-02-12T06:26:52.533Z,43.07
2023-02-12T06:29:22.374Z,44.13
2023-02-12T06:31:52.010Z,47.38
2023-02-12T06:34:22.004Z,46.83
2023-02-12T06:36:51.506Z,46.98
2023-02-12T06:39:21.064Z,43.52
2023-02-12T06:41:50.979Z,49.23
2023-02-12T06:44:20.476Z,47.88
2023-02-12T06:46:50.127Z,49.65
2023-02-12T06:49:19.813Z,50.75
2023-02-12T06:51:49.233Z,44.18
2023-02-12T06:54:19.730Z,48.02
2023-02-12T06:56:49.169Z,45.45
2023-02-12T06:59:18.728Z,47.20
2023-02-12T07:01:48.465Z,47.78
2023-02-12T07:04:18.004Z,52.80
2023-02-12T07:06:47.764Z,48.80
2023-02-12T07:09:17.769Z,48.52
2023-02-12T07:11:47.278Z,50.12
2023-02-12T07:14:18.269Z,44.90
2023-02-12T07:16:47.791Z,46.60
2023-02-12T07:19:18.471Z,48.85
2023-02-12T07:21:48.513Z,50.23
2023-02-12T07:24:19.637Z,49.53
2023-02-12T07:26:49.125Z,48.45
2023-02-12T07:29:18.538Z,45.58
2023-02-12T07:31:48.165Z,44.33
2023-02-12T07:34:18.367Z,46.13
2023-02-12T07:36:47.803Z,48.02
2023-02-12T07:39:17.305Z,50.70
2023-02-12T07:41:47.082Z,46.33
2023-02-12T07:44:16.620Z,50.88
2023-02-12T07:46:50.205Z,49.67
2023-02-12T07:49:22.026Z,43.78
2023-02-12T07:51:52.441Z,41.88
2023-02-12T07:54:21.883Z,46.98
2023-02-12T07:56:52.926Z,48.05
2023-02-12T07:59:22.412Z,43.78
2023-02-12T08:01:54.381Z,44.35
2023-02-12T08:04:26.437Z,44.23
2023-02-12T08:09:30.881Z,53.17
2023-02-12T08:12:01.234Z,58.23
2023-02-12T08:14:30.774Z,61.48
2023-02-12T08:17:00.422Z,53.23
2023-02-12T08:19:29.842Z,57.75
2023-02-12T08:22:00.068Z,57.62
2023-02-12T08:24:30.176Z,51.75
2023-02-12T08:27:00.723Z,53.40
2023-02-12T08:29:31.565Z,48.65
2023-02-12T08:32:03.613Z,51.90
2023-02-12T08:34:35.699Z,50.03
2023-02-12T08:37:07.592Z,53.50
2023-02-12T08:39:37.014Z,50.70
2023-02-12T08:42:06.659Z,46.77
2023-02-12T08:44:37.461Z,49.50
2023-02-12T08:47:07.495Z,51.80
2023-02-12T08:49:37.381Z,45.12
2023-02-12T08:52:07.096Z,42.23
2023-02-12T08:54:36.612Z,45.33
2023-02-12T08:57:06.055Z,48.98
2023-02-12T08:59:36.124Z,45.90
2023-02-12T09:02:07.198Z,46.37
2023-02-12T09:04:36.937Z,49.53
2023-02-12T09:07:08.312Z,52.67
2023-02-12T09:09:37.482Z,45.78
2023-02-12T09:12:07.169Z,46.80
2023-02-12T09:14:36.602Z,46.10
2023-02-12T09:17:06.620Z,44.23
2023-02-12T09:19:37.168Z,44.75
2023-02-12T09:22:06.675Z,47.48
2023-02-12T09:24:37.794Z,44.05
2023-02-12T09:27:07.233Z,39.73
2023-02-12T09:29:36.824Z,41.33
2023-02-12T09:32:07.382Z,47.67
2023-02-12T09:34:37.711Z,45.17
2023-02-12T09:37:07.257Z,40.15
2023-02-12T09:39:36.769Z,43.33
2023-02-12T09:42:41.548Z,40.05
2023-02-12T09:45:22.974Z,38.67
2023-02-12T09:48:10.862Z,37.28
2023-02-12T09:50:55.588Z,43.60
2023-02-12T09:53:28.512Z,41.15
2023-02-12T09:55:59.616Z,40.17
2023-02-12T09:58:38.168Z,50.38
2023-02-12T10:01:19.835Z,41.35
2023-02-12T10:03:52.668Z,39.50
2023-02-12T10:06:24.640Z,39.35
2023-02-12T10:08:57.164Z,41.55
2023-02-12T10:11:41.048Z,35.23
2023-02-12T10:14:28.822Z,37.50
2023-02-12T10:17:10.426Z,38.83
2023-02-12T10:20:08.213Z,35.50
2023-02-12T10:22:56.582Z,35.52
2023-02-12T10:25:53.101Z,34.40
2023-02-12T10:28:28.153Z,36.23
2023-02-12T10:31:07.668Z,37.40
2023-02-12T10:33:40.290Z,34.67
2023-02-12T10:36:18.951Z,34.25
2023-02-12T10:38:51.454Z,37.55
2023-02-12T10:41:21.278Z,37.05
2023-02-12T10:43:50.722Z,39.65
2023-02-12T10:46:20.271Z,32.50
2023-02-12T10:48:54.485Z,41.75
2023-02-12T10:51:46.801Z,40.55
2023-02-12T10:54:42.102Z,40.60
2023-02-12T10:57:23.972Z,37.55
2023-02-12T10:59:57.486Z,42.70
2023-02-12T11:02:33.102Z,34.13
2023-02-12T11:05:06.110Z,35.33
2023-02-12T11:07:38.660Z,34.78
2023-02-12T11:10:11.771Z,38.85
2023-02-12T11:12:46.221Z,36.75
2023-02-12T11:15:18.818Z,33.23
2023-02-12T11:17:56.891Z,31.27
2023-02-12T11:20:42.330Z,31.10
2023-02-12T11:23:32.518Z,33.75
2023-02-12T11:26:05.398Z,31.90
2023-02-12T11:28:37.824Z,31.17
2023-02-12T11:31:19.753Z,32.30
2023-02-12T11:34:07.229Z,33.08
2023-02-12T11:36:44.738Z,26.97
2023-02-12T11:39:21.359Z,26.90
2023-02-12T11:41:54.635Z,30.95
2023-02-12T11:44:30.203Z,27.70
2023-02-12T11:47:04.751Z,30.80
2023-02-12T11:49:37.482Z,25.73
2023-02-12T11:52:08.702Z,28.20
2023-02-12T11:54:43.806Z,27.30
2023-02-12T11:57:39.994Z,26.37
2023-02-12T12:00:18.576Z,25.82
2023-02-12T12:03:15.072Z,28.57
2023-02-12T12:05:47.632Z,24.60
2023-02-12T12:08:38.495Z,24.50
2023-02-12T12:11:14.170Z,25.43
2023-02-12T12:13:52.597Z,26.33
2023-02-12T12:17:04.094Z,23.53
2023-02-12T12:19:55.292Z,22.32
2023-02-12T12:22:27.991Z,24.02
2023-02-12T12:25:00.512Z,21.97
2023-02-12T12:27:57.062Z,27.40
2023-02-12T12:30:51.124Z,22.45
2023-02-12T12:33:34.353Z,25.03
2023-02-12T12:36:31.120Z,23.05
2023-02-12T12:39:24.132Z,24.20
2023-02-12T12:42:14.661Z,24.10
2023-02-12T12:44:50.055Z,22.25
2023-02-12T12:47:25.542Z,23.70
2023-02-12T12:49:58.043Z,21.27
2023-02-12T12:52:42.595Z,23.00
2023-02-12T12:55:30.243Z,17.85
2023-02-12T12:58:28.931Z,19.40
2023-02-12T13:01:19.599Z,20.17
2023-02-12T13:04:09.469Z,21.00
2023-02-12T13:06:53.945Z,18.32
2023-02-12T13:09:48.953Z,19.17
2023-02-12T13:12:55.161Z,17.95
2023-02-12T13:15:28.033Z,20.15
2023-02-12T13:18:06.527Z,19.05
2023-02-12T13:20:53.979Z,18.77
2023-02-12T13:23:52.403Z,17.65
2023-02-12T13:26:29.402Z,24.92
2023-02-12T13:29:04.717Z,18.25
2023-02-12T13:31:37.397Z,20.10
2023-02-12T13:34:09.908Z,20.35
2023-02-12T13:36:40.022Z,20.72
2023-02-12T13:39:14.975Z,21.05
2023-02-12T13:41:47.658Z,19.10
2023-02-12T13:44:32.868Z,18.65
2023-02-12T13:47:23.008Z,20.45
2023-02-12T13:50:12.167Z,17.37
2023-02-12T13:52:50.633Z,20.10
2023-02-12T13:55:23.152Z,22.40
2023-02-12T13:58:30.385Z,22.45
2023-02-12T14:01:07.866Z,20.92
2023-02-12T14:03:39.856Z,24.02
2023-02-12T14:08:56.071Z,20.20
2023-02-12T14:11:27.346Z,20.62
2023-02-12T14:14:00.985Z,19.95
2023-02-12T14:16:34.779Z,19.48
2023-02-12T14:19:38.544Z,18.23
2023-02-12T14:22:16.959Z,18.10
2023-02-12T14:24:51.891Z,18.37
2023-02-12T14:27:36.525Z,20.82
2023-02-12T14:30:12.133Z,21.23
2023-02-12T14:32:58.296Z,20.62
2023-02-12T14:35:34.098Z,17.60
2023-02-12T14:38:12.618Z,18.17
2023-02-12T14:40:48.043Z,18.95
2023-02-12T14:43:40.937Z,16.97
2023-02-12T14:46:29.261Z,21.35
2023-02-12T14:49:02.898Z,19.67
2023-02-12T14:51:44.634Z,18.70
2023-02-12T14:54:32.078Z,20.23
2023-02-12T14:57:04.714Z,21.25
2023-02-12T14:59:37.504Z,20.55
2023-02-12T15:02:09.725Z,22.13
2023-02-12T15:04:43.932Z,21.07
2023-02-12T15:07:25.286Z,20.37
2023-02-12T15:09:58.117Z,19.20
2023-02-12T15:12:42.592Z,19.40
2023-02-12T15:15:31.141Z,22.50
2023-02-12T15:18:06.572Z,17.67
2023-02-12T15:20:47.555Z,18.98
2023-02-12T15:23:41.033Z,17.10
2023-02-12T15:26:18.397Z,17.55
2023-02-12T15:28:50.015Z,19.35
2023-02-12T15:31:23.612Z,17.40
2023-02-12T15:33:57.445Z,20.32
2023-02-12T15:36:29.842Z,20.50
2023-02-12T15:39:02.073Z,16.80
2023-02-12T15:41:38.280Z,17.27
2023-02-12T15:44:28.934Z,23.45
2023-02-12T15:47:05.202Z,20.55
2023-02-12T15:49:38.686Z,20.48
2023-02-12T15:52:12.084Z,17.65
2023-02-12T15:54:41.639Z,17.85
2023-02-12T15:57:13.978Z,19.73
2023-02-12T15:59:43.716Z,19.70
2023-02-12T16:02:25.021Z,18.27
2023-02-12T16:04:56.567Z,17.92
2023-02-12T16:07:29.106Z,19.43
2023-02-12T16:09:59.679Z,19.95
2023-02-12T16:12:33.423Z,19.70
2023-02-12T16:15:04.556Z,18.67
2023-02-12T16:17:37.746Z,17.35
2023-02-12T16:20:19.103Z,19.07
2023-02-12T16:22:52.498Z,20.85
2023-02-12T16:25:33.617Z,21.45
2023-02-12T16:28:14.734Z,20.48
2023-02-12T16:30:47.390Z,24.60
2023-02-12T16:33:38.048Z,19.45
2023-02-12T16:36:18.829Z,19.15
2023-02-12T16:38:54.168Z,20.65
2023-02-12T16:41:31.805Z,24.23
2023-02-12T16:44:04.469Z,20.77
2023-02-12T16:46:36.964Z,20.75
2023-02-12T16:49:06.544Z,20.68
2023-02-12T16:51:39.898Z,21.52
2023-02-12T16:56:42.344Z,25.05
2023-02-12T16:59:12.128Z,21.60
2023-02-12T17:01:42.456Z,21.77
2023-02-12T17:04:15.487Z,24.20
2023-02-12T17:09:13.481Z,24.30
2023-02-12T17:11:43.056Z,23.98
2023-02-12T17:14:19.220Z,22.73
2023-02-12T17:16:51.213Z,29.20
2023-02-12T17:19:21.786Z,57.83
2023-02-12T17:21:52.427Z,74.92
2023-02-12T17:24:25.153Z,59.15
2023-02-12T17:26:55.532Z,46.20
2023-02-12T17:29:26.385Z,39.10
2023-02-12T17:31:56.393Z,35.35
2023-02-12T17:34:28.663Z,31.97
2023-02-12T17:36:57.961Z,39.83
2023-02-12T17:39:27.397Z,45.95
2023-02-12T17:41:58.451Z,45.90
2023-02-12T17:44:28.715Z,38.33
2023-02-12T17:46:59.053Z,35.68
2023-02-12T17:49:28.548Z,41.25
2023-02-12T17:51:57.992Z,35.10
2023-02-12T17:54:27.478Z,43.73
2023-02-12T17:56:57.061Z,50.63
2023-02-12T17:59:26.599Z,42.83
2023-02-12T18:01:56.791Z,29.40
2023-02-12T18:04:26.591Z,34.73
2023-02-12T18:06:58.158Z,42.78
2023-02-12T18:09:28.061Z,36.42
2023-02-12T18:11:57.557Z,40.83
2023-02-12T18:14:26.986Z,39.08
2023-02-12T18:16:57.352Z,36.88
2023-02-12T18:19:28.520Z,35.05
2023-02-12T18:21:58.368Z,37.13
2023-02-12T18:24:27.976Z,33.50
2023-02-12T18:26:57.426Z,37.65
2023-02-12T18:29:27.180Z,38.17
2023-02-12T18:31:57.224Z,44.18
2023-02-12T18:34:28.146Z,49.20
2023-02-12T18:36:57.723Z,38.92
2023-02-12T18:39:27.399Z,35.75
2023-02-12T18:41:56.882Z,36.50
2023-02-12T18:44:26.454Z,33.85
2023-02-12T18:46:57.599Z,45.73
2023-02-12T18:49:47.994Z,51.77
2023-02-12T18:52:18.322Z,40.67
2023-02-12T18:54:47.755Z,39.63
2023-02-12T18:57:17.177Z,44.88
2023-02-12T18:59:47.567Z,37.15
2023-02-12T19:02:17.876Z,36.10
2023-02-12T19:04:48.774Z,39.73
2023-02-12T19:07:18.502Z,37.78
2023-02-12T19:09:50.384Z,42.10
2023-02-12T19:12:19.796Z,40.12
2023-02-12T19:14:49.315Z,46.70
2023-02-12T19:17:19.714Z,41.28
2023-02-12T19:19:53.117Z,37.70
2023-02-12T19:22:22.582Z,35.00
2023-02-12T19:24:52.379Z,35.78
2023-02-12T19:27:22.367Z,46.40
2023-02-12T19:29:51.799Z,40.40
2023-02-12T19:32:21.328Z,40.73
2023-02-12T19:34:51.664Z,40.78
2023-02-12T19:37:21.941Z,36.98
2023-02-12T19:39:52.166Z,39.80
2023-02-12T19:42:21.738Z,37.90
2023-02-12T19:44:51.168Z,40.43
2023-02-12T19:47:20.659Z,46.95
2023-02-12T19:49:50.307Z,40.78
2023-02-12T19:52:19.751Z,40.92
2023-02-12T19:54:49.183Z,44.27
2023-02-12T19:57:18.755Z,43.75
2023-02-12T19:59:48.269Z,45.35
2023-02-12T20:02:18.339Z,40.43
2023-02-12T20:04:48.279Z,41.20
2023-02-12T20:07:17.710Z,42.53
2023-02-12T20:09:52.683Z,50.15
2023-02-12T20:12:22.603Z,45.78
2023-02-12T20:14:52.087Z,42.08
2023-02-12T20:17:21.590Z,43.90
2023-02-12T20:19:51.284Z,44.45
2023-02-12T20:22:22.582Z,47.58
2023-02-12T20:24:52.034Z,52.78
2023-02-12T20:27:21.945Z,41.48
2023-02-12T20:29:51.377Z,46.80
2023-02-12T20:32:20.922Z,49.55
2023-02-12T20:34:52.391Z,42.98
2023-02-12T20:37:21.881Z,46.37
2023-02-12T20:39:51.312Z,46.28
2023-02-12T20:42:20.786Z,44.58
2023-02-12T20:44:50.297Z,44.77
2023-02-12T20:47:19.715Z,47.03
2023-02-12T20:49:50.211Z,47.58
2023-02-12T20:52:21.472Z,43.87
2023-02-12T20:54:51.864Z,49.40
2023-02-12T20:57:21.365Z,46.70
2023-02-12T20:59:52.667Z,38.40
2023-02-12T21:02:22.277Z,48.33
2023-02-12T21:04:52.677Z,41.35
2023-02-12T21:07:22.200Z,39.15
2023-02-12T21:09:51.686Z,43.38
2023-02-12T21:12:21.268Z,45.40
2023-02-12T21:14:50.685Z,45.00
2023-02-12T21:17:20.582Z,47.45
2023-02-12T21:19:50.118Z,52.38
2023-02-12T21:22:21.381Z,44.95
2023-02-12T21:24:51.381Z,45.23
2023-02-12T21:27:20.825Z,41.92
2023-02-12T21:29:51.202Z,42.95
2023-02-12T21:32:20.811Z,40.52
2023-02-12T21:34:50.372Z,39.83
2023-02-12T21:37:20.442Z,41.25
2023-02-12T21:39:49.866Z,39.85
2023-02-12T21:42:19.298Z,40.70
2023-02-12T21:44:48.759Z,37.08
2023-02-12T21:47:18.194Z,40.98
2023-02-12T21:49:47.889Z,40.05
2023-02-12T21:52:18.155Z,40.80
2023-02-12T21:54:47.672Z,45.63
2023-02-12T21:57:20.576Z,47.13
2023-02-12T21:59:49.994Z,42.98
2023-02-12T22:02:19.513Z,41.23
2023-02-12T22:04:49.563Z,38.55
2023-02-12T22:07:20.862Z,39.30
2023-02-12T22:09:50.356Z,43.73
2023-02-12T22:12:19.792Z,41.63
2023-02-12T22:14:51.433Z,40.28
2023-02-12T22:17:20.942Z,37.73
2023-02-12T22:19:50.353Z,38.92
2023-02-12T22:22:20.008Z,45.30
2023-02-12T22:24:49.486Z,39.20
2023-02-12T22:27:19.051Z,41.83
2023-02-12T22:29:49.047Z,42.20
2023-02-12T22:32:18.560Z,37.08
2023-02-12T22:34:48.374Z,39.05
2023-02-12T22:37:17.874Z,42.00
2023-02-12T22:39:47.815Z,37.60
2023-02-12T22:42:17.407Z,38.83
2023-02-12T22:44:46.952Z,35.90
2023-02-12T22:47:16.527Z,32.90
2023-02-12T22:49:46.047Z,38.65
2023-02-12T22:52:15.539Z,33.60
2023-02-12T22:54:45.541Z,37.08
2023-02-12T22:57:16.988Z,32.15
2023-02-12T22:59:48.685Z,34.98
2023-02-12T23:02:18.542Z,34.35
2023-02-12T23:04:47.960Z,37.23
2023-02-12T23:07:17.516Z,37.73
2023-02-12T23:09:47.979Z,33.18
2023-02-12T23:12:17.468Z,34.97
2023-02-12T23:14:47.026Z,31.42
2023-02-12T23:17:16.446Z,39.30
2023-02-12T23:19:46.713Z,38.65
2023-02-12T23:22:16.250Z,33.50
2023-02-12T23:24:45.686Z,33.53
2023-02-12T23:27:15.254Z,37.78
2023-02-12T23:29:45.679Z,38.08
2023-02-12T23:32:15.190Z,40.23
2023-02-12T23:34:44.636Z,33.60
2023-02-12T23:37:14.489Z,35.43
2023-02-12T23:39:43.937Z,37.58
2023-02-12T23:42:13.519Z,33.18
2023-02-12T23:44:43.701Z,36.25
2023-02-12T23:47:13.195Z,37.23
2023-02-12T23:49:42.632Z,31.60
2023-02-12T23:52:12.072Z,31.42
2023-02-12T23:54:41.536Z,32.67
2023-02-12T23:57:10.997Z,31.90
2023-02-12T23:59:40.467Z,34.80
